Time;durP1;ratioP1;P1;durP2;ratioP2;P2;SDS_P1;SDS_P2;PMS_P1;PMS_P2;Temp;Humidity;BMP_temperature;BMP_pressure;BME280_temperature;BME280_humidity;BME280_pressure;Samples;Min_cycle;Max_cycle;Signal;HPM_P1;HPM_P2
2023/09/25 00:01:32;;;;;;;9.33;8.73;;;12.30;85.10;;;;;;4977351;28;20171;-87
2023/09/25 00:03:58;;;;;;;10.03;9.23;;;12.20;85.10;;;;;;4975653;28;20205;-88
2023/09/25 00:06:24;;;;;;;10.10;9.40;;;12.20;85.30;;;;;;4974955;28;20174;-86
2023/09/25 00:08:49;;;;;;;10.03;9.33;;;12.10;85.30;;;;;;4975639;28;20575;-86
2023/09/25 00:11:15;;;;;;;9.80;9.10;;;12.10;85.40;;;;;;4975668;28;20171;-87
2023/09/25 00:13:40;;;;;;;10.17;9.17;;;12.10;85.40;;;;;;4976836;28;20220;-86
2023/09/25 00:16:15;;;;;;;10.17;9.37;;;12.00;85.50;;;;;;4976680;28;20182;-87
2023/09/25 00:18:42;;;;;;;9.43;8.53;;;12.00;85.60;;;;;;4975361;28;20167;-86
2023/09/25 00:21:07;;;;;;;9.90;9.13;;;12.00;85.70;;;;;;4975437;28;20257;-86
2023/09/25 00:23:33;;;;;;;9.17;8.57;;;12.00;85.70;;;;;;4976848;28;20813;-87
2023/09/25 00:26:02;;;;;;;9.87;8.97;;;12.00;85.70;;;;;;4975348;28;20175;-86
2023/09/25 00:28:28;;;;;;;9.50;8.77;;;12.00;85.80;;;;;;4976293;28;20229;-86
2023/09/25 00:30:54;;;;;;;19.23;18.03;;;12.00;85.70;;;;;;4975156;28;20548;-86
2023/09/25 00:33:19;;;;;;;18.50;17.20;;;12.00;85.60;;;;;;4975159;28;20581;-86
2023/09/25 00:35:45;;;;;;;19.90;18.60;;;12.00;85.60;;;;;;4975367;28;20262;-87
2023/09/25 00:38:11;;;;;;;19.63;17.83;;;12.00;85.80;;;;;;4975622;28;20182;-87
2023/09/25 00:40:37;;;;;;;19.43;18.03;;;12.00;85.70;;;;;;4974951;28;20674;-86
2023/09/25 00:43:05;;;;;;;20.13;18.30;;;11.90;85.70;;;;;;4974858;28;20546;-87
2023/09/25 00:45:32;;;;;;;18.40;16.97;;;11.90;85.80;;;;;;4974775;28;20198;-86
2023/09/25 00:47:59;;;;;;;18.17;16.77;;;11.90;85.90;;;;;;4974532;28;20742;-87
2023/09/25 00:50:29;;;;;;;17.27;15.87;;;11.90;85.90;;;;;;4974881;28;20647;-86
2023/09/25 00:52:55;;;;;;;18.03;16.63;;;12.00;85.80;;;;;;4974798;28;20276;-86
2023/09/25 00:55:21;;;;;;;18.93;17.70;;;11.90;85.80;;;;;;4975903;28;20690;-86
2023/09/25 00:57:49;;;;;;;21.87;20.33;;;12.00;85.90;;;;;;4974819;28;20269;-87
2023/09/25 01:00:15;;;;;;;8.60;7.70;;;11.90;85.70;;;;;;4976009;28;20201;-86
2023/09/25 01:02:41;;;;;;;7.73;7.13;;;11.90;85.80;;;;;;4974653;28;20214;-86
2023/09/25 01:05:11;;;;;;;18.93;17.43;;;11.90;85.80;;;;;;4974440;28;20667;-87
2023/09/25 01:07:37;;;;;;;18.23;16.97;;;11.80;85.70;;;;;;4975828;28;20666;-86
2023/09/25 01:10:10;;;;;;;20.40;19.10;;;11.70;85.90;;;;;;4974510;28;20604;-88
2023/09/25 01:12:37;;;;;;;7.00;6.30;;;11.70;86.10;;;;;;4975445;28;20175;-87
2023/09/25 01:15:03;;;;;;;7.67;7.03;;;11.70;86.10;;;;;;4974447;28;20579;-87
2023/09/25 01:17:30;;;;;;;17.63;16.63;;;11.60;86.10;;;;;;4973823;28;20179;-88
2023/09/25 01:19:55;;;;;;;18.83;17.63;;;11.60;86.20;;;;;;4975486;28;20183;-87
2023/09/25 01:22:21;;;;;;;24.63;22.37;;;11.60;86.10;;;;;;4975998;28;20171;-87
2023/09/25 01:24:47;;;;;;;8.87;8.07;;;11.60;86.10;;;;;;4975310;28;20202;-87
2023/09/25 01:27:12;;;;;;;10.10;8.37;;;11.50;86.20;;;;;;4974430;28;20186;-88
2023/09/25 01:29:38;;;;;;;7.97;7.37;;;11.50;86.20;;;;;;4975272;28;20175;-87
2023/09/25 01:32:04;;;;;;;12.57;8.20;;;11.50;86.30;;;;;;4975519;28;20178;-86
2023/09/25 01:34:30;;;;;;;11.70;10.57;;;11.40;86.20;;;;;;4973516;28;20262;-86
2023/09/25 01:36:56;;;;;;;13.30;10.53;;;11.50;86.40;;;;;;4973724;28;20229;-86
2023/09/25 01:39:22;;;;;;;13.07;9.77;;;11.60;86.30;;;;;;4974053;28;20190;-87
2023/09/25 01:41:47;;;;;;;13.67;11.40;;;11.50;86.30;;;;;;4973613;28;20529;-86
2023/09/25 01:44:12;;;;;;;8.90;8.20;;;11.60;86.30;;;;;;4974739;28;20199;-87
2023/09/25 01:46:40;;;;;;;8.83;8.00;;;11.60;86.30;;;;;;4975169;28;20713;-86
2023/09/25 01:49:07;;;;;;;8.40;7.70;;;11.60;86.30;;;;;;4973689;28;20207;-87
2023/09/25 01:51:32;;;;;;;8.60;7.90;;;11.60;86.30;;;;;;4973932;28;20195;-86
2023/09/25 01:53:58;;;;;;;8.60;8.00;;;11.60;86.30;;;;;;4974810;28;20559;-86
2023/09/25 01:56:23;;;;;;;8.93;8.13;;;11.50;86.20;;;;;;4973993;28;20242;-87
2023/09/25 01:58:49;;;;;;;8.50;8.00;;;11.50;86.40;;;;;;4973670;28;20178;-87
2023/09/25 02:01:14;;;;;;;9.33;8.50;;;11.50;86.50;;;;;;4974981;28;20206;-86
2023/09/25 02:03:41;;;;;;;8.10;7.50;;;11.40;86.60;;;;;;4974442;28;20221;-85
2023/09/25 02:06:07;;;;;;;8.90;8.20;;;11.40;86.70;;;;;;4973317;28;20187;-86
2023/09/25 02:08:33;;;;;;;10.17;8.10;;;11.40;86.80;;;;;;4974741;28;20199;-86
2023/09/25 02:10:59;;;;;;;9.03;8.23;;;11.40;86.70;;;;;;4974620;28;20175;-86
2023/09/25 02:13:24;;;;;;;8.60;7.63;;;11.40;86.80;;;;;;4973412;28;20265;-86
2023/09/25 02:15:51;;;;;;;7.50;6.97;;;11.30;86.70;;;;;;4973371;28;20663;-86
2023/09/25 02:18:17;;;;;;;8.40;7.80;;;11.30;86.70;;;;;;4973563;28;20178;-86
2023/09/25 02:20:42;;;;;;;7.83;7.20;;;11.30;86.80;;;;;;4974589;28;20569;-86
2023/09/25 02:23:08;;;;;;;8.57;7.97;;;11.30;86.90;;;;;;4974880;28;20555;-87
2023/09/25 02:25:33;;;;;;;8.47;7.53;;;11.30;87.00;;;;;;4973560;28;20578;-86
2023/09/25 02:27:59;;;;;;;8.10;7.50;;;11.30;86.90;;;;;;4973854;28;20226;-86
2023/09/25 02:30:24;;;;;;;9.93;7.67;;;11.30;86.90;;;;;;4977329;28;20554;-86
2023/09/25 02:32:50;;;;;;;7.10;6.60;;;11.30;86.90;;;;;;4978602;28;20186;-86
2023/09/25 02:35:15;;;;;;;8.43;7.83;;;11.30;86.90;;;;;;4978454;28;20291;-86
2023/09/25 02:37:42;;;;;;;8.60;8.00;;;11.30;86.90;;;;;;4977346;28;20194;-86
2023/09/25 02:40:09;;;;;;;8.60;8.10;;;11.20;86.80;;;;;;4978695;28;20686;-86
2023/09/25 02:42:35;;;;;;;8.83;8.23;;;11.20;86.90;;;;;;4977304;28;20178;-86
2023/09/25 02:45:00;;;;;;;9.07;8.13;;;11.20;87.00;;;;;;4977021;28;20706;-86
2023/09/25 02:47:26;;;;;;;8.03;7.53;;;11.10;87.10;;;;;;4978200;28;20202;-86
2023/09/25 02:49:51;;;;;;;8.63;7.83;;;11.20;87.10;;;;;;4978188;28;20175;-86
2023/09/25 02:52:17;;;;;;;8.40;7.60;;;11.20;87.10;;;;;;4976930;28;20555;-86
2023/09/25 02:54:42;;;;;;;9.73;8.77;;;11.20;87.00;;;;;;4976978;28;20195;-86
2023/09/25 02:57:08;;;;;;;18.47;17.00;;;11.20;87.10;;;;;;4976969;28;20221;-86
2023/09/25 02:59:34;;;;;;;17.00;15.87;;;11.20;87.00;;;;;;4976798;28;20238;-86
2023/09/25 03:02:02;;;;;;;16.97;15.77;;;11.10;86.90;;;;;;4976478;28;20552;-86
2023/09/25 03:04:27;;;;;;;17.30;16.03;;;11.10;86.90;;;;;;4977816;28;20190;-85
2023/09/25 03:06:53;;;;;;;15.73;14.80;;;11.20;87.00;;;;;;4976567;28;20265;-86
2023/09/25 03:09:18;;;;;;;15.87;14.87;;;11.10;86.90;;;;;;4976602;28;20218;-85
2023/09/25 03:11:44;;;;;;;16.70;15.60;;;11.10;86.90;;;;;;4977767;28;20254;-86
2023/09/25 03:14:09;;;;;;;16.30;15.30;;;11.10;87.00;;;;;;4976616;28;20592;-86
2023/09/25 03:16:35;;;;;;;15.80;14.80;;;11.10;87.00;;;;;;4976694;28;20179;-86
2023/09/25 03:19:01;;;;;;;16.43;15.33;;;11.10;86.90;;;;;;4977518;28;20707;-85
2023/09/25 03:21:26;;;;;;;15.70;14.70;;;11.20;86.90;;;;;;4976100;28;20216;-86
2023/09/25 03:23:51;;;;;;;18.30;17.10;;;11.20;86.90;;;;;;4977727;28;20245;-86
2023/09/25 03:26:19;;;;;;;7.70;7.20;;;11.20;87.00;;;;;;4977694;28;20639;-86
2023/09/25 03:28:46;;;;;;;8.67;6.77;;;11.30;86.80;;;;;;4977057;28;20198;-86
2023/09/25 03:31:12;;;;;;;7.57;6.90;;;11.30;86.60;;;;;;4976008;28;20265;-86
2023/09/25 03:33:39;;;;;;;17.20;15.70;;;11.30;86.50;;;;;;4977599;28;20191;-86
2023/09/25 03:36:05;;;;;;;18.93;17.63;;;11.30;86.60;;;;;;4977569;28;20171;-87
2023/09/25 03:38:31;;;;;;;7.47;6.87;;;11.30;86.60;;;;;;4976206;28;20179;-87
2023/09/25 03:40:57;;;;;;;7.87;7.33;;;11.20;86.50;;;;;;4976367;28;20614;-87
2023/09/25 03:43:22;;;;;;;8.53;7.03;;;11.20;86.60;;;;;;4975821;28;20175;-86
2023/09/25 03:45:48;;;;;;;7.33;6.83;;;11.20;86.70;;;;;;4975813;28;20183;-86
2023/09/25 03:48:13;;;;;;;7.33;6.80;;;11.20;86.80;;;;;;4976142;28;20213;-86
2023/09/25 03:50:39;;;;;;;8.63;6.67;;;11.20;86.80;;;;;;4976125;28;20175;-87
2023/09/25 03:53:05;;;;;;;8.40;7.70;;;11.20;86.90;;;;;;4975980;28;20171;-86
2023/09/25 03:55:30;;;;;;;7.40;6.90;;;11.20;87.00;;;;;;4977542;28;20555;-87
2023/09/25 03:57:56;;;;;;;7.57;6.63;;;11.20;86.90;;;;;;4977048;28;20183;-85
2023/09/25 04:00:24;;;;;;;8.30;7.50;;;11.20;86.80;;;;;;4976700;28;20183;-86
2023/09/25 04:02:50;;;;;;;7.33;6.80;;;11.20;86.80;;;;;;4977028;28;20183;-86
2023/09/25 04:05:16;;;;;;;12.33;6.70;;;11.30;86.70;;;;;;4975604;28;20202;-86
2023/09/25 04:07:41;;;;;;;7.90;7.10;;;11.30;86.70;;;;;;4975416;28;20758;-86
2023/09/25 04:10:08;;;;;;;7.77;7.27;;;11.30;86.70;;;;;;4976663;28;20175;-86
2023/09/25 04:12:37;;;;;;;10.23;7.23;;;11.30;86.70;;;;;;4975455;28;20269;-86
2023/09/25 04:15:13;;;;;;;7.17;6.57;;;11.20;86.70;;;;;;4975039;28;20199;-86
2023/09/25 04:17:40;;;;;;;10.93;6.97;;;11.20;86.70;;;;;;4975565;28;20270;-86
2023/09/25 04:20:16;;;;;;;7.07;6.57;;;11.20;86.80;;;;;;4975264;28;20198;-86
2023/09/25 04:22:42;;;;;;;7.13;6.63;;;11.10;86.90;;;;;;4975545;28;20170;-86
2023/09/25 04:25:09;;;;;;;8.93;6.83;;;11.10;87.10;;;;;;4975022;28;20581;-86
2023/09/25 04:27:35;;;;;;;8.50;7.90;;;11.20;87.20;;;;;;4975252;28;20238;-86
2023/09/25 04:30:04;;;;;;;7.40;6.90;;;11.20;87.20;;;;;;4976768;28;20175;-86
2023/09/25 04:32:31;;;;;;;9.80;6.77;;;11.20;87.00;;;;;;4975381;28;20666;-86
2023/09/25 04:34:59;;;;;;;8.40;7.70;;;11.20;87.10;;;;;;4975040;28;20198;-86
2023/09/25 04:37:25;;;;;;;8.03;7.30;;;11.20;87.20;;;;;;4976320;28;20241;-86
2023/09/25 04:39:50;;;;;;;8.10;7.43;;;11.20;87.20;;;;;;4974947;28;20606;-86
2023/09/25 04:42:16;;;;;;;9.90;7.10;;;11.10;87.10;;;;;;4974994;28;20201;-86
2023/09/25 04:44:41;;;;;;;7.27;6.77;;;11.20;87.20;;;;;;4976286;28;20281;-86
2023/09/25 04:47:07;;;;;;;7.90;7.40;;;11.20;87.10;;;;;;4974897;28;20558;-87
2023/09/25 04:49:32;;;;;;;7.73;6.90;;;11.20;87.10;;;;;;4974800;28;20550;-86
2023/09/25 04:51:58;;;;;;;8.73;8.00;;;11.10;87.10;;;;;;4974644;28;20198;-86
2023/09/25 04:54:24;;;;;;;8.27;7.47;;;11.20;87.20;;;;;;4974786;28;20198;-85
2023/09/25 04:56:49;;;;;;;8.03;7.43;;;11.30;87.20;;;;;;4976596;28;20257;-87
2023/09/25 04:59:15;;;;;;;9.40;7.80;;;11.20;87.00;;;;;;4976197;28;20171;-86
2023/09/25 05:01:40;;;;;;;7.87;7.37;;;11.30;87.10;;;;;;4974181;28;20590;-86
2023/09/25 05:04:06;;;;;;;8.20;7.63;;;11.30;87.10;;;;;;4974386;28;20202;-86
2023/09/25 05:06:31;;;;;;;9.23;8.43;;;11.30;87.10;;;;;;4974621;28;20183;-86
2023/09/25 05:08:57;;;;;;;16.00;15.00;;;11.30;86.90;;;;;;4974468;28;20206;-86
2023/09/25 05:11:23;;;;;;;13.70;12.70;;;11.40;86.80;;;;;;4974497;28;20177;-86
2023/09/25 05:13:49;;;;;;;15.80;14.70;;;11.30;86.80;;;;;;4974488;28;20191;-86
2023/09/25 05:16:15;;;;;;;16.20;15.10;;;11.40;86.80;;;;;;4974342;28;20647;-86
2023/09/25 05:18:41;;;;;;;17.77;16.47;;;11.30;86.70;;;;;;4974567;28;20261;-86
2023/09/25 05:21:06;;;;;;;16.37;15.27;;;11.40;86.90;;;;;;4975118;28;20191;-86
2023/09/25 05:23:32;;;;;;;16.27;15.17;;;11.30;86.80;;;;;;4974735;28;20182;-85
2023/09/25 05:25:58;;;;;;;15.30;14.30;;;11.30;86.80;;;;;;4975302;28;20186;-86
2023/09/25 05:28:24;;;;;;;14.60;13.60;;;11.30;86.90;;;;;;4974058;28;20294;-85
2023/09/25 05:30:53;;;;;;;14.97;13.97;;;11.40;86.90;;;;;;4973872;28;20199;-86
2023/09/25 05:33:19;;;;;;;17.50;16.20;;;11.40;87.00;;;;;;4974263;28;20186;-86
2023/09/25 05:35:45;;;;;;;19.73;18.53;;;11.40;87.00;;;;;;4975366;28;20546;-86
2023/09/25 05:38:10;;;;;;;10.00;9.20;;;11.50;87.10;;;;;;4974053;28;20182;-86
2023/09/25 05:40:36;;;;;;;9.50;8.90;;;11.50;86.80;;;;;;4973835;28;20210;-86
2023/09/25 05:43:02;;;;;;;15.30;14.40;;;11.40;86.80;;;;;;4975257;28;20189;-86
2023/09/25 05:45:28;;;;;;;15.57;14.47;;;11.50;86.90;;;;;;4974956;28;20725;-86
2023/09/25 05:47:53;;;;;;;17.53;16.43;;;11.50;86.90;;;;;;4973811;28;20202;-86
2023/09/25 05:50:19;;;;;;;9.40;8.60;;;11.50;86.90;;;;;;4974762;28;20182;-86
2023/09/25 05:52:44;;;;;;;9.43;8.73;;;11.40;86.90;;;;;;4973582;28;20178;-86
2023/09/25 05:55:10;;;;;;;15.70;14.70;;;11.50;87.10;;;;;;4973201;28;20203;-86
2023/09/25 05:57:36;;;;;;;16.60;15.50;;;11.50;87.10;;;;;;4973311;28;20558;-86
2023/09/25 06:00:09;;;;;;;19.00;17.70;;;11.50;87.00;;;;;;4974960;28;20206;-86
2023/09/25 06:02:35;;;;;;;9.03;8.27;;;11.50;87.20;;;;;;4973187;28;20169;-86
2023/09/25 06:05:01;;;;;;;9.50;8.70;;;11.50;87.20;;;;;;4973642;28;20202;-87
2023/09/25 06:07:26;;;;;;;9.40;8.67;;;11.50;87.30;;;;;;4974800;28;20230;-87
2023/09/25 06:09:52;;;;;;;8.83;8.33;;;11.50;87.20;;;;;;4973432;28;20293;-86
2023/09/25 06:12:18;;;;;;;9.57;8.87;;;11.50;87.40;;;;;;4974360;28;20178;-86
2023/09/25 06:14:44;;;;;;;9.13;8.43;;;11.60;87.10;;;;;;4974254;28;20190;-86
2023/09/25 06:17:09;;;;;;;9.40;8.60;;;11.60;87.20;;;;;;4973246;28;20691;-86
2023/09/25 06:19:36;;;;;;;9.90;9.00;;;11.70;87.30;;;;;;4973018;28;20241;-86
2023/09/25 06:22:02;;;;;;;9.80;8.90;;;11.70;87.00;;;;;;4973243;28;20240;-87
2023/09/25 06:24:27;;;;;;;9.13;8.53;;;11.80;87.00;;;;;;4973287;28;20286;-87
2023/09/25 06:26:53;;;;;;;9.17;8.37;;;11.80;86.70;;;;;;4973244;28;20225;-87
2023/09/25 06:29:21;;;;;;;9.07;8.27;;;11.80;86.80;;;;;;4973407;28;20202;-87
2023/09/25 06:31:47;;;;;;;10.40;8.30;;;11.70;87.00;;;;;;4974579;28;20635;-87
2023/09/25 06:34:13;;;;;;;8.90;8.40;;;11.90;87.00;;;;;;4974504;28;20191;-86
2023/09/25 06:36:38;;;;;;;9.20;8.40;;;11.90;86.90;;;;;;4974728;28;20186;-86
2023/09/25 06:39:09;;;;;;;8.40;7.80;;;11.90;86.80;;;;;;4973778;28;20593;-86
2023/09/25 06:41:37;;;;;;;8.40;7.70;;;12.00;86.90;;;;;;4972958;28;20565;-86
2023/09/25 06:44:06;;;;;;;8.77;8.10;;;12.00;86.70;;;;;;4974332;28;20281;-86
2023/09/25 06:46:35;;;;;;;9.43;8.43;;;12.10;86.60;;;;;;4973510;28;20654;-86
2023/09/25 06:49:01;;;;;;;8.87;8.17;;;12.20;86.50;;;;;;4974132;28;20199;-87
2023/09/25 06:51:29;;;;;;;9.30;8.53;;;12.20;86.40;;;;;;4973690;28;20245;-87
2023/09/25 06:53:54;;;;;;;9.07;8.20;;;12.20;86.50;;;;;;4974477;28;20273;-86
2023/09/25 06:56:20;;;;;;;9.57;8.67;;;12.30;86.50;;;;;;4973665;28;20221;-87
2023/09/25 06:58:45;;;;;;;8.57;7.97;;;12.30;86.40;;;;;;4973209;28;20183;-87
2023/09/25 07:01:11;;;;;;;8.60;7.90;;;12.40;86.20;;;;;;4973458;28;20186;-87
2023/09/25 07:03:37;;;;;;;8.93;8.03;;;12.50;86.10;;;;;;4973149;28;20202;-86
2023/09/25 07:06:03;;;;;;;8.83;8.13;;;12.70;85.70;;;;;;4972971;28;20179;-87
2023/09/25 07:08:30;;;;;;;8.53;7.97;;;12.70;85.80;;;;;;4973387;28;20583;-86
2023/09/25 07:10:56;;;;;;;8.57;7.87;;;12.80;85.50;;;;;;4972972;28;20647;-86
2023/09/25 07:13:22;;;;;;;8.43;7.73;;;12.80;85.50;;;;;;4972722;28;20178;-86
2023/09/25 07:15:47;;;;;;;8.77;8.17;;;12.90;85.30;;;;;;4977581;28;20229;-85
2023/09/25 07:18:19;;;;;;;8.33;7.70;;;13.00;85.40;;;;;;4976614;28;20178;-87
2023/09/25 07:20:52;;;;;;;10.60;8.40;;;13.10;85.50;;;;;;4977988;28;20198;-86
2023/09/25 07:23:17;;;;;;;8.23;7.63;;;13.20;85.50;;;;;;4976257;28;20202;-85
2023/09/25 07:25:43;;;;;;;8.90;8.27;;;13.30;85.10;;;;;;4976009;28;20225;-85
2023/09/25 07:28:08;;;;;;;8.80;8.20;;;13.30;85.10;;;;;;4975943;28;20203;-86
2023/09/25 07:30:34;;;;;;;9.70;8.90;;;13.40;84.00;;;;;;4976101;28;20608;-86
2023/09/25 07:32:59;;;;;;;9.30;8.60;;;13.40;83.50;;;;;;4977746;28;20526;-86
2023/09/25 07:35:25;;;;;;;8.83;8.13;;;13.60;84.00;;;;;;4976233;28;20237;-86
2023/09/25 07:37:50;;;;;;;8.50;7.90;;;13.50;83.90;;;;;;4976086;28;20318;-85
2023/09/25 07:40:18;;;;;;;9.87;8.93;;;13.60;84.20;;;;;;4976087;28;20554;-85
2023/09/25 07:42:44;;;;;;;9.83;9.03;;;13.60;83.50;;;;;;4977709;28;20657;-86
2023/09/25 07:45:12;;;;;;;8.83;8.23;;;13.70;83.40;;;;;;4977185;28;20191;-86
2023/09/25 07:47:40;;;;;;;9.20;8.63;;;13.70;82.90;;;;;;4977195;28;20203;-86
2023/09/25 07:50:10;;;;;;;15.70;14.60;;;13.80;82.90;;;;;;4977412;28;20229;-86
2023/09/25 07:52:40;;;;;;;14.63;13.77;;;13.80;83.20;;;;;;4975755;28;20269;-85
2023/09/25 07:55:08;;;;;;;14.97;14.07;;;13.90;83.60;;;;;;4975923;28;20194;-86
2023/09/25 07:57:40;;;;;;;14.90;13.80;;;13.90;83.20;;;;;;4975963;28;20206;-86
2023/09/25 08:00:15;;;;;;;15.47;14.27;;;14.00;83.50;;;;;;4976004;28;20174;-85
2023/09/25 08:02:47;;;;;;;15.13;14.13;;;14.10;83.10;;;;;;4975866;28;20591;-86
2023/09/25 08:05:17;;;;;;;16.73;15.33;;;14.10;82.60;;;;;;4977088;28;20190;-86
2023/09/25 08:07:43;;;;;;;16.63;15.10;;;14.20;82.20;;;;;;4975721;28;20202;-86
2023/09/25 08:10:10;;;;;;;17.17;16.07;;;14.30;82.10;;;;;;4975360;28;20643;-86
2023/09/25 08:12:35;;;;;;;18.13;16.93;;;14.40;82.60;;;;;;4975237;28;20179;-85
2023/09/25 08:15:01;;;;;;;10.57;9.77;;;14.40;81.80;;;;;;4975494;28;20575;-86
2023/09/25 08:17:26;;;;;;;9.82;9.05;;;14.50;81.60;;;;;;4975493;28;20651;-86
2023/09/25 08:19:54;;;;;;;16.33;15.38;;;14.50;82.20;;;;;;4975366;28;20198;-86
2023/09/25 08:22:20;;;;;;;18.25;16.92;;;14.70;82.50;;;;;;4975722;28;20171;-85
2023/09/25 08:24:47;;;;;;;19.20;17.85;;;14.70;82.50;;;;;;4975642;28;20328;-85
2023/09/25 08:27:13;;;;;;;10.13;9.43;;;14.80;81.90;;;;;;4974500;28;20174;-85
2023/09/25 08:29:38;;;;;;;10.77;10.07;;;14.90;81.60;;;;;;4975017;28;20197;-85
2023/09/25 08:32:04;;;;;;;9.27;8.65;;;14.90;81.80;;;;;;4976724;28;20171;-86
2023/09/25 08:34:30;;;;;;;9.68;9.07;;;15.10;81.70;;;;;;4975212;28;20190;-86
2023/09/25 08:36:55;;;;;;;9.88;8.98;;;15.20;81.50;;;;;;4975493;28;20175;-86
2023/09/25 08:39:21;;;;;;;10.45;9.77;;;15.30;81.60;;;;;;4976320;28;20181;-85
2023/09/25 08:41:46;;;;;;;10.15;9.35;;;15.40;81.50;;;;;;4976025;28;20181;-86
2023/09/25 08:44:15;;;;;;;10.52;9.63;;;15.50;80.30;;;;;;4976031;28;20198;-84
2023/09/25 08:46:41;;;;;;;10.35;9.65;;;15.60;79.70;;;;;;4976037;28;20235;-85
2023/09/25 08:49:06;;;;;;;10.13;9.43;;;15.70;80.20;;;;;;4975805;28;20574;-85
2023/09/25 08:51:35;;;;;;;9.93;9.25;;;15.70;79.60;;;;;;4975355;28;20170;-86
2023/09/25 08:54:02;;;;;;;9.50;8.90;;;15.80;79.80;;;;;;4975647;28;20226;-85
2023/09/25 08:56:29;;;;;;;11.20;10.18;;;15.90;79.50;;;;;;4974701;28;20254;-86
2023/09/25 08:58:56;;;;;;;10.80;10.10;;;16.00;79.20;;;;;;4974402;28;20178;-86
2023/09/25 09:01:21;;;;;;;11.35;10.32;;;16.10;78.90;;;;;;4975647;28;20175;-86
2023/09/25 09:03:47;;;;;;;10.15;9.32;;;16.20;78.70;;;;;;4975522;28;20186;-86
2023/09/25 09:06:13;;;;;;;12.02;11.23;;;16.30;78.50;;;;;;4975737;28;20187;-86
2023/09/25 09:08:38;;;;;;;13.25;11.98;;;16.30;77.50;;;;;;4976172;28;20210;-85
2023/09/25 09:11:10;;;;;;;11.77;10.98;;;16.40;77.30;;;;;;4974416;28;20175;-86
2023/09/25 09:13:43;;;;;;;11.30;10.30;;;16.50;77.80;;;;;;4975664;28;20205;-86
2023/09/25 09:16:12;;;;;;;11.32;10.43;;;16.50;77.10;;;;;;4974352;28;20183;-86
2023/09/25 09:18:38;;;;;;;13.50;12.60;;;16.60;76.80;;;;;;4975350;28;20217;-87
2023/09/25 09:21:04;;;;;;;14.13;13.10;;;16.70;75.40;;;;;;4974744;28;20230;-86
2023/09/25 09:23:40;;;;;;;14.13;12.82;;;16.80;74.90;;;;;;4975131;28;20182;-85
2023/09/25 09:26:07;;;;;;;14.07;13.13;;;16.90;75.40;;;;;;4973830;28;20178;-85
2023/09/25 09:28:33;;;;;;;13.80;12.90;;;17.10;75.10;;;;;;4973758;28;20705;-85
2023/09/25 09:31:03;;;;;;;15.07;13.98;;;17.20;74.80;;;;;;4975570;28;20174;-87
2023/09/25 09:33:32;;;;;;;14.73;13.63;;;17.20;73.90;;;;;;4975384;28;20253;-86
2023/09/25 09:35:57;;;;;;;15.18;14.07;;;17.30;73.50;;;;;;4974599;28;20189;-86
2023/09/25 09:38:24;;;;;;;14.63;13.60;;;17.30;73.60;;;;;;4974980;28;20179;-86
2023/09/25 09:40:51;;;;;;;15.73;14.60;;;17.50;73.60;;;;;;4974471;28;20200;-86
2023/09/25 09:43:17;;;;;;;13.95;12.90;;;17.60;72.90;;;;;;4975635;28;20175;-86
2023/09/25 09:45:46;;;;;;;13.50;12.63;;;17.70;73.20;;;;;;4975607;28;20174;-85
2023/09/25 09:48:15;;;;;;;14.98;13.88;;;17.70;72.80;;;;;;4973926;28;20211;-87
2023/09/25 09:50:48;;;;;;;17.20;15.90;;;17.80;72.20;;;;;;4973924;28;20647;-87
2023/09/25 09:53:16;;;;;;;15.57;14.38;;;17.90;71.90;;;;;;4973707;28;20532;-86
2023/09/25 09:55:43;;;;;;;15.38;14.38;;;18.10;72.30;;;;;;4973694;28;20566;-86
2023/09/25 09:58:10;;;;;;;16.52;15.43;;;18.30;72.00;;;;;;4973642;28;20185;-86
2023/09/25 10:00:38;;;;;;;15.60;14.65;;;18.20;69.30;;;;;;4973635;28;20202;-86
2023/09/25 10:03:06;;;;;;;14.98;13.90;;;18.20;69.70;;;;;;4975091;28;20182;-87
2023/09/25 10:05:45;;;;;;;14.60;13.70;;;18.40;71.10;;;;;;4973638;28;20205;-86
2023/09/25 10:08:11;;;;;;;14.23;13.27;;;18.50;69.00;;;;;;4974227;28;20202;-86
2023/09/25 10:10:40;;;;;;;14.27;13.02;;;18.50;69.30;;;;;;4975756;28;20185;-87
2023/09/25 10:13:24;;;;;;;14.95;13.68;;;18.60;69.90;;;;;;4974333;28;20278;-86
2023/09/25 10:16:01;;;;;;;15.30;14.40;;;18.70;69.00;;;;;;4977955;28;20254;-87
2023/09/25 10:18:30;;;;;;;14.93;14.02;;;18.80;68.60;;;;;;4973520;28;20705;-86
2023/09/25 10:21:10;;;;;;;15.05;13.93;;;18.90;68.70;;;;;;4973454;28;20230;-86
2023/09/25 10:23:39;;;;;;;14.88;13.98;;;19.00;68.40;;;;;;4974854;28;20334;-87
2023/09/25 10:26:15;;;;;;;14.40;13.50;;;19.10;67.00;;;;;;4973474;28;20186;-87
2023/09/25 10:28:41;;;;;;;15.23;14.23;;;19.10;67.30;;;;;;4973616;28;20241;-86
2023/09/25 10:31:21;;;;;;;15.48;14.23;;;19.10;66.90;;;;;;4973957;28;20175;-86
2023/09/25 10:33:59;;;;;;;16.77;15.65;;;19.20;65.90;;;;;;4974013;28;20195;-86
2023/09/25 10:36:46;;;;;;;15.82;14.80;;;19.30;64.50;;;;;;4973445;28;20184;-86
2023/09/25 10:39:15;;;;;;;18.85;17.65;;;19.40;65.70;;;;;;4973541;28;20201;-86
2023/09/25 10:41:42;;;;;;;18.90;17.30;;;19.30;62.20;;;;;;4973204;28;20181;-86
2023/09/25 10:44:10;;;;;;;19.02;17.63;;;19.50;64.50;;;;;;4974531;28;20269;-86
2023/09/25 10:46:35;;;;;;;18.95;17.50;;;19.50;64.60;;;;;;4973569;28;20183;-86
2023/09/25 10:49:01;;;;;;;18.77;17.45;;;19.50;62.10;;;;;;4975820;28;20220;-86
2023/09/25 10:51:26;;;;;;;18.50;17.33;;;19.40;62.10;;;;;;4977726;28;20183;-86
2023/09/25 10:53:53;;;;;;;18.35;17.10;;;19.40;60.60;;;;;;4977432;28;20194;-86
2023/09/25 10:56:19;;;;;;;17.83;16.63;;;19.30;62.80;;;;;;4978521;28;20167;-86
2023/09/25 10:58:50;;;;;;;17.63;16.33;;;19.50;64.30;;;;;;4977147;28;20713;-87
2023/09/25 11:01:23;;;;;;;22.92;21.42;;;19.70;64.10;;;;;;4977266;28;20174;-86
2023/09/25 11:03:48;;;;;;;22.33;20.83;;;19.80;62.10;;;;;;4978322;28;20250;-88
2023/09/25 11:06:14;;;;;;;23.00;21.50;;;19.70;62.60;;;;;;4977561;28;20178;-87
2023/09/25 11:08:39;;;;;;;18.50;17.30;;;19.80;62.70;;;;;;4977870;28;20253;-86
2023/09/25 11:11:06;;;;;;;17.88;16.77;;;19.80;59.20;;;;;;4978236;28;20671;-87
2023/09/25 11:13:32;;;;;;;24.25;22.00;;;19.90;59.70;;;;;;4976966;28;20646;-85
2023/09/25 11:16:00;;;;;;;23.85;22.15;;;19.70;57.40;;;;;;4976513;28;20273;-86
2023/09/25 11:18:26;;;;;;;24.30;22.70;;;19.60;58.40;;;;;;4977501;28;20171;-87
2023/09/25 11:20:52;;;;;;;17.95;16.75;;;19.70;59.50;;;;;;4976388;28;20223;-86
2023/09/25 11:23:18;;;;;;;17.15;15.88;;;19.80;60.40;;;;;;4976180;28;20175;-85
2023/09/25 11:25:44;;;;;;;24.77;22.90;;;19.80;58.90;;;;;;4977726;28;20229;-86
2023/09/25 11:28:14;;;;;;;24.25;22.42;;;19.90;59.00;;;;;;4977870;28;20207;-86
2023/09/25 11:30:41;;;;;;;25.05;23.23;;;19.90;58.60;;;;;;4977769;28;20173;-86
2023/09/25 11:33:09;;;;;;;18.20;17.00;;;20.00;59.50;;;;;;4976469;28;20230;-86
2023/09/25 11:35:39;;;;;;;17.92;16.70;;;20.00;57.60;;;;;;4977254;28;20187;-85
2023/09/25 11:38:20;;;;;;;18.10;16.90;;;20.10;57.80;;;;;;4977230;28;20250;-86
2023/09/25 11:40:46;;;;;;;17.90;16.70;;;20.10;57.00;;;;;;4976097;28;20204;-86
2023/09/25 11:43:12;;;;;;;17.85;16.55;;;20.20;58.60;;;;;;4976491;28;20766;-87
2023/09/25 11:45:39;;;;;;;17.55;16.25;;;20.20;56.10;;;;;;4976018;28;20199;-87
2023/09/25 11:48:04;;;;;;;17.02;16.02;;;20.30;59.10;;;;;;4976616;28;20709;-87
2023/09/25 11:50:30;;;;;;;16.77;15.77;;;20.30;56.30;;;;;;4975978;28;20175;-86
2023/09/25 11:52:56;;;;;;;17.05;15.95;;;20.30;58.00;;;;;;4975761;28;20182;-88
2023/09/25 11:55:21;;;;;;;17.15;16.05;;;20.30;56.80;;;;;;4975796;28;20647;-86
2023/09/25 11:57:47;;;;;;;16.83;15.82;;;20.20;55.90;;;;;;4977757;28;20534;-86
2023/09/25 12:00:15;;;;;;;17.42;16.33;;;20.20;57.30;;;;;;4975474;28;20242;-86
2023/09/25 12:02:43;;;;;;;17.67;16.33;;;20.20;56.00;;;;;;4976470;28;20207;-86
2023/09/25 12:05:09;;;;;;;17.75;16.55;;;19.90;56.70;;;;;;4975407;28;20285;-86
2023/09/25 12:07:36;;;;;;;17.75;16.42;;;19.80;56.40;;;;;;4975208;28;20175;-87
2023/09/25 12:10:09;;;;;;;17.65;16.45;;;19.70;56.10;;;;;;4975552;28;20225;-85
2023/09/25 12:12:39;;;;;;;17.52;16.23;;;19.60;56.90;;;;;;4975386;28;20266;-85
2023/09/25 12:15:08;;;;;;;17.70;16.50;;;19.70;57.40;;;;;;4975114;28;20199;-86
2023/09/25 12:17:35;;;;;;;17.38;16.27;;;19.70;58.20;;;;;;4975320;28;20171;-86
2023/09/25 12:20:22;;;;;;;18.40;16.95;;;19.80;58.60;;;;;;4975457;28;20187;-87
2023/09/25 12:22:52;;;;;;;17.42;15.90;;;19.70;59.10;;;;;;4975325;28;20194;-86
2023/09/25 12:25:18;;;;;;;16.77;15.60;;;19.80;58.60;;;;;;4975057;28;20195;-86
2023/09/25 12:27:45;;;;;;;17.20;16.10;;;19.80;58.00;;;;;;4975096;28;20264;-85
2023/09/25 12:30:15;;;;;;;17.40;16.30;;;19.80;57.90;;;;;;4975219;28;20673;-86
2023/09/25 12:32:43;;;;;;;18.02;16.83;;;19.80;57.10;;;;;;4975825;28;20254;-86
2023/09/25 12:35:11;;;;;;;17.83;16.73;;;20.00;57.40;;;;;;4974950;28;20194;-86